sensor_id;sensor_type;location;lat;lon;timestamp;temperature;humidity
26583;DHT22;14230;45.382;10.998;2022-12-16T00:01:09;5.50;99.90
26583;DHT22;14230;45.382;10.998;2022-12-16T00:03:37;5.50;99.90
26583;DHT22;14230;45.382;10.998;2022-12-16T00:06:05;5.50;99.90
26583;DHT22;14230;45.382;10.998;2022-12-16T00:08:35;5.50;99.90
26583;DHT22;14230;45.382;10.998;2022-12-16T00:11:02;5.60;99.90
26583;DHT22;14230;45.382;10.998;2022-12-16T00:13:30;5.60;99.90
26583;DHT22;14230;45.382;10.998;2022-12-16T00:15:58;5.60;99.90
26583;DHT22;14230;45.382;10.998;2022-12-16T00:18:26;5.60;99.90
26583;DHT22;14230;45.382;10.998;2022-12-16T00:20:53;5.60;99.90
26583;DHT22;14230;45.382;10.998;2022-12-16T00:23:21;5.60;99.90
26583;DHT22;14230;45.382;10.998;2022-12-16T00:25:48;5.60;99.90
26583;DHT22;14230;45.382;10.998;2022-12-16T00:28:18;5.60;99.90
26583;DHT22;14230;45.382;10.998;2022-12-16T00:30:49;5.60;99.90
26583;DHT22;14230;45.382;10.998;2022-12-16T00:33:18;5.60;99.90
26583;DHT22;14230;45.382;10.998;2022-12-16T00:35:45;5.70;99.90
26583;DHT22;14230;45.382;10.998;2022-12-16T00:38:13;5.70;99.90
26583;DHT22;14230;45.382;10.998;2022-12-16T00:40:41;5.70;99.90
26583;DHT22;14230;45.382;10.998;2022-12-16T00:43:08;5.70;99.90
26583;DHT22;14230;45.382;10.998;2022-12-16T00:45:35;5.70;99.90
26583;DHT22;14230;45.382;10.998;2022-12-16T00:48:03;5.70;99.90
26583;DHT22;14230;45.382;10.998;2022-12-16T00:50:31;5.70;99.90
26583;DHT22;14230;45.382;10.998;2022-12-16T00:52:58;5.70;99.90
26583;DHT22;14230;45.382;10.998;2022-12-16T00:55:25;5.70;99.90
26583;DHT22;14230;45.382;10.998;2022-12-16T00:57:53;5.70;99.90
26583;DHT22;14230;45.382;10.998;2022-12-16T01:00:21;5.70;99.90
26583;DHT22;14230;45.382;10.998;2022-12-16T01:02:48;5.70;99.90
26583;DHT22;14230;45.382;10.998;2022-12-16T01:05:17;5.70;99.90
26583;DHT22;14230;45.382;10.998;2022-12-16T01:07:46;5.70;99.90
26583;DHT22;14230;45.382;10.998;2022-12-16T01:10:13;5.70;99.90
26583;DHT22;14230;45.382;10.998;2022-12-16T01:12:41;5.70;99.90
26583;DHT22;14230;45.382;10.998;2022-12-16T01:15:08;5.70;99.90
26583;DHT22;14230;45.382;10.998;2022-12-16T01:17:38;5.70;99.90
26583;DHT22;14230;45.382;10.998;2022-12-16T01:20:06;5.70;99.90
26583;DHT22;14230;45.382;10.998;2022-12-16T01:22:33;5.70;99.90
26583;DHT22;14230;45.382;10.998;2022-12-16T01:25:00;5.70;99.90
26583;DHT22;14230;45.382;10.998;2022-12-16T01:27:28;5.80;99.90
26583;DHT22;14230;45.382;10.998;2022-12-16T01:29:55;5.80;99.90
26583;DHT22;14230;45.382;10.998;2022-12-16T01:32:22;5.80;99.90
26583;DHT22;14230;45.382;10.998;2022-12-16T01:34:50;5.80;99.90
26583;DHT22;14230;45.382;10.998;2022-12-16T01:37:22;5.80;99.90
26583;DHT22;14230;45.382;10.998;2022-12-16T01:39:49;5.80;99.90
26583;DHT22;14230;45.382;10.998;2022-12-16T01:42:19;5.80;99.90
26583;DHT22;14230;45.382;10.998;2022-12-16T01:44:48;5.80;99.90
26583;DHT22;14230;45.382;10.998;2022-12-16T01:47:22;5.80;99.90
26583;DHT22;14230;45.382;10.998;2022-12-16T01:50:00;5.80;99.90
26583;DHT22;14230;45.382;10.998;2022-12-16T01:52:38;5.80;99.90
26583;DHT22;14230;45.382;10.998;2022-12-16T01:55:14;5.80;99.90
26583;DHT22;14230;45.382;10.998;2022-12-16T01:57:46;5.80;99.90
26583;DHT22;14230;45.382;10.998;2022-12-16T02:00:14;5.90;99.90
26583;DHT22;14230;45.382;10.998;2022-12-16T02:02:41;5.80;99.90
26583;DHT22;14230;45.382;10.998;2022-12-16T02:05:10;5.90;99.90
26583;DHT22;14230;45.382;10.998;2022-12-16T02:07:58;5.90;99.90
26583;DHT22;14230;45.382;10.998;2022-12-16T02:13:18;5.90;99.90
26583;DHT22;14230;45.382;10.998;2022-12-16T02:31:15;5.90;99.90
26583;DHT22;14230;45.382;10.998;2022-12-16T02:39:33;5.90;99.90
26583;DHT22;14230;45.382;10.998;2022-12-16T02:47:05;5.80;99.90
26583;DHT22;14230;45.382;10.998;2022-12-16T02:52:00;5.80;99.90
26583;DHT22;14230;45.382;10.998;2022-12-16T02:54:28;5.80;99.90
26583;DHT22;14230;45.382;10.998;2022-12-16T02:59:23;5.70;99.90
26583;DHT22;14230;45.382;10.998;2022-12-16T03:02:00;5.70;99.90
26583;DHT22;14230;45.382;10.998;2022-12-16T03:04:53;5.70;99.90
26583;DHT22;14230;45.382;10.998;2022-12-16T03:07:18;5.70;99.90
26583;DHT22;14230;45.382;10.998;2022-12-16T03:09:48;5.70;99.90
26583;DHT22;14230;45.382;10.998;2022-12-16T03:12:17;5.80;99.90
26583;DHT22;14230;45.382;10.998;2022-12-16T03:14:47;5.80;99.90
26583;DHT22;14230;45.382;10.998;2022-12-16T03:17:16;5.70;99.90
26583;DHT22;14230;45.382;10.998;2022-12-16T03:19:47;5.80;99.90
26583;DHT22;14230;45.382;10.998;2022-12-16T03:22:16;5.80;99.90
26583;DHT22;14230;45.382;10.998;2022-12-16T03:24:44;5.80;99.90
26583;DHT22;14230;45.382;10.998;2022-12-16T03:30:14;5.80;99.90
26583;DHT22;14230;45.382;10.998;2022-12-16T03:32:36;5.80;99.90
26583;DHT22;14230;45.382;10.998;2022-12-16T03:35:13;5.80;99.90
26583;DHT22;14230;45.382;10.998;2022-12-16T03:37:41;5.80;99.90
26583;DHT22;14230;45.382;10.998;2022-12-16T03:40:10;5.70;99.90
26583;DHT22;14230;45.382;10.998;2022-12-16T03:42:38;5.70;99.90
26583;DHT22;14230;45.382;10.998;2022-12-16T03:45:06;5.70;99.90
26583;DHT22;14230;45.382;10.998;2022-12-16T03:47:37;5.70;99.90
26583;DHT22;14230;45.382;10.998;2022-12-16T03:50:04;5.70;99.90
26583;DHT22;14230;45.382;10.998;2022-12-16T03:52:31;5.70;99.90
26583;DHT22;14230;45.382;10.998;2022-12-16T03:54:59;5.70;99.90
26583;DHT22;14230;45.382;10.998;2022-12-16T03:57:26;5.70;99.90
26583;DHT22;14230;45.382;10.998;2022-12-16T03:59:53;5.70;99.90
26583;DHT22;14230;45.382;10.998;2022-12-16T04:02:20;5.70;99.90
26583;DHT22;14230;45.382;10.998;2022-12-16T04:04:48;5.70;99.90
26583;DHT22;14230;45.382;10.998;2022-12-16T04:07:15;5.70;99.90
26583;DHT22;14230;45.382;10.998;2022-12-16T04:09:50;5.70;99.90
26583;DHT22;14230;45.382;10.998;2022-12-16T04:12:18;5.80;99.90
26583;DHT22;14230;45.382;10.998;2022-12-16T04:15:05;5.70;99.90
26583;DHT22;14230;45.382;10.998;2022-12-16T04:17:51;5.70;99.90
26583;DHT22;14230;45.382;10.998;2022-12-16T04:20:48;5.70;99.90
26583;DHT22;14230;45.382;10.998;2022-12-16T04:23:36;5.80;99.90
26583;DHT22;14230;45.382;10.998;2022-12-16T04:26:26;5.70;99.90
26583;DHT22;14230;45.382;10.998;2022-12-16T04:28:53;5.70;99.90
26583;DHT22;14230;45.382;10.998;2022-12-16T04:31:22;5.70;99.90
26583;DHT22;14230;45.382;10.998;2022-12-16T04:33:49;5.70;99.90
26583;DHT22;14230;45.382;10.998;2022-12-16T04:36:35;5.60;99.90
26583;DHT22;14230;45.382;10.998;2022-12-16T04:39:21;5.60;99.90
26583;DHT22;14230;45.382;10.998;2022-12-16T04:42:07;5.50;99.90
26583;DHT22;14230;45.382;10.998;2022-12-16T04:44:53;5.40;99.90
26583;DHT22;14230;45.382;10.998;2022-12-16T04:47:39;5.40;99.90
26583;DHT22;14230;45.382;10.998;2022-12-16T04:50:25;5.40;99.90
26583;DHT22;14230;45.382;10.998;2022-12-16T04:53:11;5.40;99.90
26583;DHT22;14230;45.382;10.998;2022-12-16T04:55:58;5.30;99.90
26583;DHT22;14230;45.382;10.998;2022-12-16T04:58:44;5.30;99.90
26583;DHT22;14230;45.382;10.998;2022-12-16T05:01:29;5.30;99.90
26583;DHT22;14230;45.382;10.998;2022-12-16T05:04:15;5.30;99.90
26583;DHT22;14230;45.382;10.998;2022-12-16T05:07:01;5.20;99.90
26583;DHT22;14230;45.382;10.998;2022-12-16T05:09:47;5.20;99.90
26583;DHT22;14230;45.382;10.998;2022-12-16T05:12:33;5.30;99.90
26583;DHT22;14230;45.382;10.998;2022-12-16T05:15:18;5.30;99.90
26583;DHT22;14230;45.382;10.998;2022-12-16T05:18:11;5.30;99.90
26583;DHT22;14230;45.382;10.998;2022-12-16T05:20:58;5.30;99.90
26583;DHT22;14230;45.382;10.998;2022-12-16T05:23:48;5.20;99.90
26583;DHT22;14230;45.382;10.998;2022-12-16T05:26:34;5.20;99.90
26583;DHT22;14230;45.382;10.998;2022-12-16T05:29:20;5.20;99.90
26583;DHT22;14230;45.382;10.998;2022-12-16T05:32:05;5.30;99.90
26583;DHT22;14230;45.382;10.998;2022-12-16T05:34:51;5.30;99.90
26583;DHT22;14230;45.382;10.998;2022-12-16T05:37:37;5.20;99.90
26583;DHT22;14230;45.382;10.998;2022-12-16T05:40:23;5.20;99.90
26583;DHT22;14230;45.382;10.998;2022-12-16T05:43:09;5.20;99.90
26583;DHT22;14230;45.382;10.998;2022-12-16T05:45:55;5.20;99.90
26583;DHT22;14230;45.382;10.998;2022-12-16T05:48:41;5.20;99.90
26583;DHT22;14230;45.382;10.998;2022-12-16T05:51:26;5.20;99.90
26583;DHT22;14230;45.382;10.998;2022-12-16T05:54:14;5.20;99.90
26583;DHT22;14230;45.382;10.998;2022-12-16T05:56:59;5.30;99.90
26583;DHT22;14230;45.382;10.998;2022-12-16T05:59:56;5.20;99.90
26583;DHT22;14230;45.382;10.998;2022-12-16T06:02:41;5.20;99.90
26583;DHT22;14230;45.382;10.998;2022-12-16T06:05:28;5.10;99.90
26583;DHT22;14230;45.382;10.998;2022-12-16T06:08:13;5.10;99.90
26583;DHT22;14230;45.382;10.998;2022-12-16T06:10:58;5.00;99.90
26583;DHT22;14230;45.382;10.998;2022-12-16T06:13:45;5.00;99.90
26583;DHT22;14230;45.382;10.998;2022-12-16T06:16:30;5.00;99.90
26583;DHT22;14230;45.382;10.998;2022-12-16T06:19:16;5.00;99.90
26583;DHT22;14230;45.382;10.998;2022-12-16T06:22:02;5.10;99.90
26583;DHT22;14230;45.382;10.998;2022-12-16T06:24:48;5.00;99.90
26583;DHT22;14230;45.382;10.998;2022-12-16T06:27:34;5.00;99.90
26583;DHT22;14230;45.382;10.998;2022-12-16T06:30:19;4.90;99.90
26583;DHT22;14230;45.382;10.998;2022-12-16T06:33:05;4.90;99.90
26583;DHT22;14230;45.382;10.998;2022-12-16T06:35:51;5.00;99.90
26583;DHT22;14230;45.382;10.998;2022-12-16T06:38:37;4.90;99.90
26583;DHT22;14230;45.382;10.998;2022-12-16T06:41:22;4.90;99.90
26583;DHT22;14230;45.382;10.998;2022-12-16T06:44:08;4.90;99.90
26583;DHT22;14230;45.382;10.998;2022-12-16T06:46:54;4.90;99.90
26583;DHT22;14230;45.382;10.998;2022-12-16T06:49:40;4.90;99.90
26583;DHT22;14230;45.382;10.998;2022-12-16T06:52:26;4.90;99.90
26583;DHT22;14230;45.382;10.998;2022-12-16T06:55:11;5.00;99.90
26583;DHT22;14230;45.382;10.998;2022-12-16T06:57:58;5.10;99.90
26583;DHT22;14230;45.382;10.998;2022-12-16T07:00:44;5.10;99.90
26583;DHT22;14230;45.382;10.998;2022-12-16T07:03:30;5.10;99.90
26583;DHT22;14230;45.382;10.998;2022-12-16T07:06:15;5.00;99.90
26583;DHT22;14230;45.382;10.998;2022-12-16T07:09:01;5.10;99.90
26583;DHT22;14230;45.382;10.998;2022-12-16T07:11:46;5.10;99.90
26583;DHT22;14230;45.382;10.998;2022-12-16T07:14:32;5.10;99.90
26583;DHT22;14230;45.382;10.998;2022-12-16T07:17:18;5.10;99.90
26583;DHT22;14230;45.382;10.998;2022-12-16T07:20:04;5.20;99.90
26583;DHT22;14230;45.382;10.998;2022-12-16T07:22:50;5.10;99.90
26583;DHT22;14230;45.382;10.998;2022-12-16T07:25:45;5.10;99.90
26583;DHT22;14230;45.382;10.998;2022-12-16T07:28:31;5.10;99.90
26583;DHT22;14230;45.382;10.998;2022-12-16T07:31:17;5.10;99.90
26583;DHT22;14230;45.382;10.998;2022-12-16T07:34:03;5.10;99.90
26583;DHT22;14230;45.382;10.998;2022-12-16T07:36:49;5.10;99.90
26583;DHT22;14230;45.382;10.998;2022-12-16T07:39:35;5.10;99.90
26583;DHT22;14230;45.382;10.998;2022-12-16T07:42:22;5.10;99.90
26583;DHT22;14230;45.382;10.998;2022-12-16T07:45:08;5.10;99.90
26583;DHT22;14230;45.382;10.998;2022-12-16T07:47:54;5.10;99.90
26583;DHT22;14230;45.382;10.998;2022-12-16T07:50:40;5.20;99.90
26583;DHT22;14230;45.382;10.998;2022-12-16T07:53:26;5.20;99.90
26583;DHT22;14230;45.382;10.998;2022-12-16T07:56:11;5.20;99.90
26583;DHT22;14230;45.382;10.998;2022-12-16T07:58:57;5.20;99.90
26583;DHT22;14230;45.382;10.998;2022-12-16T08:01:43;5.20;99.90
26583;DHT22;14230;45.382;10.998;2022-12-16T08:04:29;5.20;99.90
26583;DHT22;14230;45.382;10.998;2022-12-16T08:07:15;5.10;99.90
26583;DHT22;14230;45.382;10.998;2022-12-16T08:10:01;5.10;99.90
26583;DHT22;14230;45.382;10.998;2022-12-16T08:12:47;5.10;99.90
26583;DHT22;14230;45.382;10.998;2022-12-16T08:15:33;5.20;99.90
26583;DHT22;14230;45.382;10.998;2022-12-16T08:18:18;5.10;99.90
26583;DHT22;14230;45.382;10.998;2022-12-16T08:21:04;5.10;99.90
26583;DHT22;14230;45.382;10.998;2022-12-16T08:23:50;5.10;99.90
26583;DHT22;14230;45.382;10.998;2022-12-16T08:26:36;5.00;99.90
26583;DHT22;14230;45.382;10.998;2022-12-16T08:29:22;5.00;99.90
26583;DHT22;14230;45.382;10.998;2022-12-16T08:32:14;5.00;99.90
26583;DHT22;14230;45.382;10.998;2022-12-16T08:35:00;4.90;99.90
26583;DHT22;14230;45.382;10.998;2022-12-16T08:37:46;4.90;99.90
26583;DHT22;14230;45.382;10.998;2022-12-16T08:40:42;4.90;99.90
26583;DHT22;14230;45.382;10.998;2022-12-16T08:43:29;4.90;99.90
26583;DHT22;14230;45.382;10.998;2022-12-16T08:46:16;4.80;99.90
26583;DHT22;14230;45.382;10.998;2022-12-16T08:49:01;4.90;99.90
26583;DHT22;14230;45.382;10.998;2022-12-16T08:51:47;4.90;99.90
26583;DHT22;14230;45.382;10.998;2022-12-16T08:54:33;5.00;99.90
26583;DHT22;14230;45.382;10.998;2022-12-16T08:57:20;5.00;99.90
26583;DHT22;14230;45.382;10.998;2022-12-16T09:00:05;5.10;99.90
26583;DHT22;14230;45.382;10.998;2022-12-16T09:02:53;5.10;99.90
26583;DHT22;14230;45.382;10.998;2022-12-16T09:05:40;5.00;99.90
26583;DHT22;14230;45.382;10.998;2022-12-16T09:08:25;5.10;99.90
26583;DHT22;14230;45.382;10.998;2022-12-16T09:11:11;5.20;99.90
26583;DHT22;14230;45.382;10.998;2022-12-16T09:13:57;5.20;99.90
26583;DHT22;14230;45.382;10.998;2022-12-16T09:16:43;5.30;99.90
26583;DHT22;14230;45.382;10.998;2022-12-16T09:19:28;5.30;99.90
26583;DHT22;14230;45.382;10.998;2022-12-16T09:22:14;5.40;99.90
26583;DHT22;14230;45.382;10.998;2022-12-16T09:25:00;5.40;99.90
26583;DHT22;14230;45.382;10.998;2022-12-16T09:27:48;5.40;99.90
26583;DHT22;14230;45.382;10.998;2022-12-16T09:30:34;5.40;99.90
26583;DHT22;14230;45.382;10.998;2022-12-16T09:33:21;5.50;99.90
26583;DHT22;14230;45.382;10.998;2022-12-16T09:36:07;5.50;99.90
26583;DHT22;14230;45.382;10.998;2022-12-16T09:38:53;5.60;99.90
26583;DHT22;14230;45.382;10.998;2022-12-16T09:41:42;5.70;99.90
26583;DHT22;14230;45.382;10.998;2022-12-16T09:44:32;5.70;99.90
26583;DHT22;14230;45.382;10.998;2022-12-16T09:53:23;6.00;99.90
26583;DHT22;14230;45.382;10.998;2022-12-16T09:56:13;6.00;99.90
26583;DHT22;14230;45.382;10.998;2022-12-16T09:59:01;6.10;99.90
26583;DHT22;14230;45.382;10.998;2022-12-16T10:01:47;6.30;99.90
26583;DHT22;14230;45.382;10.998;2022-12-16T10:04:34;6.50;99.90
26583;DHT22;14230;45.382;10.998;2022-12-16T10:07:21;6.70;99.90
26583;DHT22;14230;45.382;10.998;2022-12-16T10:10:15;6.90;99.90
26583;DHT22;14230;45.382;10.998;2022-12-16T10:15:56;7.10;99.90
26583;DHT22;14230;45.382;10.998;2022-12-16T10:22:34;7.30;99.90
26583;DHT22;14230;45.382;10.998;2022-12-16T10:25:05;7.40;99.90
26583;DHT22;14230;45.382;10.998;2022-12-16T10:27:55;7.40;99.90
26583;DHT22;14230;45.382;10.998;2022-12-16T10:30:42;7.40;99.90
26583;DHT22;14230;45.382;10.998;2022-12-16T10:33:28;7.50;99.90
26583;DHT22;14230;45.382;10.998;2022-12-16T10:36:16;7.50;99.90
26583;DHT22;14230;45.382;10.998;2022-12-16T10:39:04;7.50;99.90
26583;DHT22;14230;45.382;10.998;2022-12-16T10:41:51;7.50;99.90
26583;DHT22;14230;45.382;10.998;2022-12-16T10:44:54;7.40;99.90
26583;DHT22;14230;45.382;10.998;2022-12-16T10:47:39;7.30;99.90
26583;DHT22;14230;45.382;10.998;2022-12-16T10:50:25;7.30;99.90
26583;DHT22;14230;45.382;10.998;2022-12-16T10:53:13;7.30;99.90
26583;DHT22;14230;45.382;10.998;2022-12-16T10:59:05;7.10;99.90
26583;DHT22;14230;45.382;10.998;2022-12-16T11:01:58;7.10;99.90
26583;DHT22;14230;45.382;10.998;2022-12-16T11:04:45;7.10;99.90
26583;DHT22;14230;45.382;10.998;2022-12-16T11:10:31;7.10;99.90
26583;DHT22;14230;45.382;10.998;2022-12-16T11:16:06;7.20;99.90
26583;DHT22;14230;45.382;10.998;2022-12-16T11:18:51;7.10;99.90
26583;DHT22;14230;45.382;10.998;2022-12-16T11:21:37;7.20;99.90
26583;DHT22;14230;45.382;10.998;2022-12-16T11:24:23;7.30;99.90
26583;DHT22;14230;45.382;10.998;2022-12-16T11:27:25;7.30;99.90
26583;DHT22;14230;45.382;10.998;2022-12-16T11:32:59;7.50;99.90
26583;DHT22;14230;45.382;10.998;2022-12-16T11:35:47;7.40;99.90
26583;DHT22;14230;45.382;10.998;2022-12-16T11:38:44;7.30;99.90
26583;DHT22;14230;45.382;10.998;2022-12-16T11:41:36;7.30;99.90
26583;DHT22;14230;45.382;10.998;2022-12-16T11:44:25;7.30;99.90
26583;DHT22;14230;45.382;10.998;2022-12-16T11:47:34;7.30;99.90
26583;DHT22;14230;45.382;10.998;2022-12-16T11:50:18;7.20;99.90
26583;DHT22;14230;45.382;10.998;2022-12-16T11:53:05;7.10;99.90
26583;DHT22;14230;45.382;10.998;2022-12-16T11:55:59;7.20;99.90
26583;DHT22;14230;45.382;10.998;2022-12-16T11:58:46;7.10;99.90
26583;DHT22;14230;45.382;10.998;2022-12-16T12:01:34;7.10;99.90
26583;DHT22;14230;45.382;10.998;2022-12-16T12:04:21;7.10;99.90
26583;DHT22;14230;45.382;10.998;2022-12-16T12:09:56;7.00;99.90
26583;DHT22;14230;45.382;10.998;2022-12-16T12:12:56;7.00;99.90
26583;DHT22;14230;45.382;10.998;2022-12-16T12:21:24;7.20;99.90
26583;DHT22;14230;45.382;10.998;2022-12-16T12:27:11;7.30;99.90
26583;DHT22;14230;45.382;10.998;2022-12-16T12:38:39;7.30;99.90
26583;DHT22;14230;45.382;10.998;2022-12-16T12:41:33;7.30;99.90
26583;DHT22;14230;45.382;10.998;2022-12-16T12:44:29;7.30;99.90
26583;DHT22;14230;45.382;10.998;2022-12-16T12:47:21;7.30;99.90
26583;DHT22;14230;45.382;10.998;2022-12-16T12:50:13;7.20;99.90
26583;DHT22;14230;45.382;10.998;2022-12-16T12:55:49;7.30;99.90
26583;DHT22;14230;45.382;10.998;2022-12-16T12:58:39;7.30;99.90
26583;DHT22;14230;45.382;10.998;2022-12-16T13:01:27;7.40;99.90
26583;DHT22;14230;45.382;10.998;2022-12-16T13:04:16;7.40;99.90
26583;DHT22;14230;45.382;10.998;2022-12-16T13:07:02;7.30;99.90
26583;DHT22;14230;45.382;10.998;2022-12-16T13:10:35;7.20;99.90
26583;DHT22;14230;45.382;10.998;2022-12-16T13:16:00;7.00;99.90
26583;DHT22;14230;45.382;10.998;2022-12-16T13:18:46;7.00;99.90
26583;DHT22;14230;45.382;10.998;2022-12-16T13:27:12;7.10;99.90
26583;DHT22;14230;45.382;10.998;2022-12-16T13:30:05;7.10;99.90
26583;DHT22;14230;45.382;10.998;2022-12-16T13:36:06;7.10;99.90
26583;DHT22;14230;45.382;10.998;2022-12-16T13:38:52;7.00;99.90
26583;DHT22;14230;45.382;10.998;2022-12-16T13:50:39;6.90;99.90
26583;DHT22;14230;45.382;10.998;2022-12-16T13:53:39;6.90;99.90
26583;DHT22;14230;45.382;10.998;2022-12-16T13:56:29;6.90;99.90
26583;DHT22;14230;45.382;10.998;2022-12-16T13:59:22;6.80;99.90
26583;DHT22;14230;45.382;10.998;2022-12-16T14:05:29;6.90;99.90
26583;DHT22;14230;45.382;10.998;2022-12-16T14:08:21;6.90;99.90
26583;DHT22;14230;45.382;10.998;2022-12-16T14:14:28;7.00;99.90
26583;DHT22;14230;45.382;10.998;2022-12-16T14:17:23;6.90;99.90
26583;DHT22;14230;45.382;10.998;2022-12-16T14:20:21;6.90;99.90
26583;DHT22;14230;45.382;10.998;2022-12-16T14:23:26;6.90;99.90
26583;DHT22;14230;45.382;10.998;2022-12-16T14:26:24;6.80;99.90
26583;DHT22;14230;45.382;10.998;2022-12-16T14:29:20;6.80;99.90
26583;DHT22;14230;45.382;10.998;2022-12-16T14:32:17;6.80;99.90
26583;DHT22;14230;45.382;10.998;2022-12-16T14:35:06;6.80;99.90
26583;DHT22;14230;45.382;10.998;2022-12-16T14:37:56;6.90;99.90
26583;DHT22;14230;45.382;10.998;2022-12-16T14:40:42;6.90;99.90
26583;DHT22;14230;45.382;10.998;2022-12-16T14:43:34;6.80;99.90
26583;DHT22;14230;45.382;10.998;2022-12-16T14:46:28;6.90;99.90
26583;DHT22;14230;45.382;10.998;2022-12-16T14:49:25;6.90;99.90
26583;DHT22;14230;45.382;10.998;2022-12-16T14:52:15;6.80;99.90
26583;DHT22;14230;45.382;10.998;2022-12-16T14:55:08;6.70;99.90
26583;DHT22;14230;45.382;10.998;2022-12-16T14:58:04;6.70;99.90
26583;DHT22;14230;45.382;10.998;2022-12-16T15:00:50;6.70;99.90
26583;DHT22;14230;45.382;10.998;2022-12-16T15:03:43;6.80;99.90
26583;DHT22;14230;45.382;10.998;2022-12-16T15:09:21;6.80;99.90
26583;DHT22;14230;45.382;10.998;2022-12-16T15:12:08;6.80;99.90
26583;DHT22;14230;45.382;10.998;2022-12-16T15:14:54;6.80;99.90
26583;DHT22;14230;45.382;10.998;2022-12-16T15:17:50;6.80;99.90
26583;DHT22;14230;45.382;10.998;2022-12-16T15:20:39;6.80;99.90
26583;DHT22;14230;45.382;10.998;2022-12-16T15:23:29;6.80;99.90
26583;DHT22;14230;45.382;10.998;2022-12-16T15:26:22;6.70;99.90
26583;DHT22;14230;45.382;10.998;2022-12-16T15:35:22;6.70;99.90
26583;DHT22;14230;45.382;10.998;2022-12-16T15:41:00;6.70;99.90
26583;DHT22;14230;45.382;10.998;2022-12-16T15:43:46;6.80;99.90
26583;DHT22;14230;45.382;10.998;2022-12-16T15:46:32;6.70;99.90
26583;DHT22;14230;45.382;10.998;2022-12-16T15:49:23;6.80;99.90
26583;DHT22;14230;45.382;10.998;2022-12-16T15:58:17;6.70;99.90
26583;DHT22;14230;45.382;10.998;2022-12-16T16:01:03;6.70;99.90
26583;DHT22;14230;45.382;10.998;2022-12-16T16:03:50;6.70;99.90
26583;DHT22;14230;45.382;10.998;2022-12-16T16:06:35;6.70;99.90
26583;DHT22;14230;45.382;10.998;2022-12-16T16:09:22;6.70;99.90
26583;DHT22;14230;45.382;10.998;2022-12-16T16:12:09;6.70;99.90
26583;DHT22;14230;45.382;10.998;2022-12-16T16:14:55;6.70;99.90
26583;DHT22;14230;45.382;10.998;2022-12-16T16:17:41;6.70;99.90
26583;DHT22;14230;45.382;10.998;2022-12-16T16:20:27;6.60;99.90
26583;DHT22;14230;45.382;10.998;2022-12-16T16:23:13;6.50;99.90
26583;DHT22;14230;45.382;10.998;2022-12-16T16:26:00;6.60;99.90
26583;DHT22;14230;45.382;10.998;2022-12-16T16:28:45;6.50;99.90
26583;DHT22;14230;45.382;10.998;2022-12-16T16:31:31;6.50;99.90
26583;DHT22;14230;45.382;10.998;2022-12-16T16:34:17;6.40;99.90
26583;DHT22;14230;45.382;10.998;2022-12-16T16:37:06;6.50;99.90
26583;DHT22;14230;45.382;10.998;2022-12-16T16:39:59;6.50;99.90
26583;DHT22;14230;45.382;10.998;2022-12-16T16:42:45;6.50;99.90
26583;DHT22;14230;45.382;10.998;2022-12-16T16:45:31;6.50;99.90
26583;DHT22;14230;45.382;10.998;2022-12-16T16:48:17;6.50;99.90
26583;DHT22;14230;45.382;10.998;2022-12-16T16:51:03;6.40;99.90
26583;DHT22;14230;45.382;10.998;2022-12-16T16:53:49;6.50;99.90
26583;DHT22;14230;45.382;10.998;2022-12-16T16:56:35;6.50;99.90
26583;DHT22;14230;45.382;10.998;2022-12-16T16:59:22;6.60;99.90
26583;DHT22;14230;45.382;10.998;2022-12-16T17:02:19;6.60;99.90
26583;DHT22;14230;45.382;10.998;2022-12-16T17:05:08;6.50;99.90
26583;DHT22;14230;45.382;10.998;2022-12-16T17:07:54;6.50;99.90
26583;DHT22;14230;45.382;10.998;2022-12-16T17:10:39;6.50;99.90
26583;DHT22;14230;45.382;10.998;2022-12-16T17:13:25;6.40;99.90
26583;DHT22;14230;45.382;10.998;2022-12-16T17:16:12;6.40;99.90
26583;DHT22;14230;45.382;10.998;2022-12-16T17:18:58;6.50;99.90
26583;DHT22;14230;45.382;10.998;2022-12-16T17:21:44;6.50;99.90
26583;DHT22;14230;45.382;10.998;2022-12-16T17:24:30;6.50;99.90
26583;DHT22;14230;45.382;10.998;2022-12-16T17:27:21;6.50;99.90
26583;DHT22;14230;45.382;10.998;2022-12-16T17:30:17;6.50;99.90
26583;DHT22;14230;45.382;10.998;2022-12-16T17:33:09;6.50;99.90
26583;DHT22;14230;45.382;10.998;2022-12-16T17:35:55;6.50;99.90
26583;DHT22;14230;45.382;10.998;2022-12-16T17:38:42;6.50;99.90
26583;DHT22;14230;45.382;10.998;2022-12-16T17:41:29;6.50;99.90
26583;DHT22;14230;45.382;10.998;2022-12-16T18:02:14;6.40;99.90
26583;DHT22;14230;45.382;10.998;2022-12-16T18:05:00;6.40;99.90
26583;DHT22;14230;45.382;10.998;2022-12-16T18:07:46;6.40;99.90
26583;DHT22;14230;45.382;10.998;2022-12-16T18:10:32;6.40;99.90
26583;DHT22;14230;45.382;10.998;2022-12-16T18:13:18;6.40;99.90
26583;DHT22;14230;45.382;10.998;2022-12-16T18:16:04;6.50;99.90
26583;DHT22;14230;45.382;10.998;2022-12-16T18:18:51;6.50;99.90
26583;DHT22;14230;45.382;10.998;2022-12-16T18:21:36;6.40;99.90
26583;DHT22;14230;45.382;10.998;2022-12-16T18:24:23;6.40;99.90
26583;DHT22;14230;45.382;10.998;2022-12-16T18:27:14;6.40;99.90
26583;DHT22;14230;45.382;10.998;2022-12-16T18:30:00;6.50;99.90
26583;DHT22;14230;45.382;10.998;2022-12-16T18:32:46;6.50;99.90
26583;DHT22;14230;45.382;10.998;2022-12-16T18:35:32;6.50;99.90
26583;DHT22;14230;45.382;10.998;2022-12-16T18:38:17;6.50;99.90
26583;DHT22;14230;45.382;10.998;2022-12-16T18:41:05;6.50;99.90
26583;DHT22;14230;45.382;10.998;2022-12-16T18:43:51;6.50;99.90
26583;DHT22;14230;45.382;10.998;2022-12-16T18:46:37;6.50;99.90
26583;DHT22;14230;45.382;10.998;2022-12-16T18:49:23;6.50;99.90
26583;DHT22;14230;45.382;10.998;2022-12-16T18:52:08;6.60;99.90
26583;DHT22;14230;45.382;10.998;2022-12-16T18:54:54;6.60;99.90
26583;DHT22;14230;45.382;10.998;2022-12-16T18:57:40;6.60;99.90
26583;DHT22;14230;45.382;10.998;2022-12-16T19:00:26;6.60;99.90
26583;DHT22;14230;45.382;10.998;2022-12-16T19:03:12;6.60;99.90
26583;DHT22;14230;45.382;10.998;2022-12-16T19:05:58;6.60;99.90
26583;DHT22;14230;45.382;10.998;2022-12-16T19:08:43;6.60;99.90
26583;DHT22;14230;45.382;10.998;2022-12-16T19:11:29;6.60;99.90
26583;DHT22;14230;45.382;10.998;2022-12-16T19:14:15;6.60;99.90
26583;DHT22;14230;45.382;10.998;2022-12-16T19:17:01;6.60;99.90
26583;DHT22;14230;45.382;10.998;2022-12-16T19:19:47;6.60;99.90
26583;DHT22;14230;45.382;10.998;2022-12-16T19:22:33;6.60;99.90
26583;DHT22;14230;45.382;10.998;2022-12-16T19:25:20;6.60;99.90
26583;DHT22;14230;45.382;10.998;2022-12-16T19:28:14;6.60;99.90
26583;DHT22;14230;45.382;10.998;2022-12-16T19:31:00;6.60;99.90
26583;DHT22;14230;45.382;10.998;2022-12-16T19:33:46;6.70;99.90
26583;DHT22;14230;45.382;10.998;2022-12-16T19:36:32;6.60;99.90
26583;DHT22;14230;45.382;10.998;2022-12-16T19:39:18;6.50;99.90